Time;durP1;ratioP1;P1;durP2;ratioP2;P2;SDS_P1;SDS_P2;PMS_P1;PMS_P2;Temp;Humidity;BMP_temperature;BMP_pressure;BME280_temperature;BME280_humidity;BME280_pressure;Samples;Min_cycle;Max_cycle;Signal;HPM_P1;HPM_P2
2020/12/24 00:01:19;;;;;;;9.52;1.48;;;20.70;49.60;;;;;;5038799;28;20021;-72
2020/12/24 00:03:45;;;;;;;4.80;0.85;;;20.70;50.10;;;;;;5034747;28;20511;-72
2020/12/24 00:06:11;;;;;;;5.93;0.95;;;20.70;49.50;;;;;;5060396;28;20037;-72
2020/12/24 00:08:36;;;;;;;3.17;0.73;;;20.70;49.80;;;;;;5062756;28;20454;-72
2020/12/24 00:11:03;;;;;;;3.58;0.75;;;20.70;49.80;;;;;;5065818;28;20028;-72
2020/12/24 00:13:28;;;;;;;0.75;0.28;;;20.70;49.70;;;;;;5041808;28;20025;-72
2020/12/24 00:15:54;;;;;;;2.25;0.50;;;20.70;49.70;;;;;;5066920;28;20036;-72
2020/12/24 00:18:20;;;;;;;4.57;0.75;;;20.70;49.50;;;;;;5057910;28;20017;-72
2020/12/24 00:20:45;;;;;;;6.15;1.05;;;20.70;49.10;;;;;;5029894;28;20434;-72
2020/12/24 00:23:11;;;;;;;5.55;1.35;;;20.70;49.60;;;;;;5035296;28;20033;-72
2020/12/24 00:25:46;;;;;;;0.70;0.35;;;20.70;49.80;;;;;;5041779;28;20037;-72
2020/12/24 00:28:11;;;;;;;4.05;1.00;;;20.70;49.90;;;;;;5039748;28;20052;-72
2020/12/24 00:30:41;;;;;;;3.17;0.70;;;20.70;49.50;;;;;;5061166;28;20060;-72
2020/12/24 00:33:08;;;;;;;3.50;0.60;;;20.70;49.70;;;;;;5044475;28;20059;-72
2020/12/24 00:35:34;;;;;;;4.55;0.63;;;20.70;49.80;;;;;;5067178;28;20033;-72
2020/12/24 00:37:59;;;;;;;2.63;0.88;;;20.70;49.90;;;;;;5040466;28;20406;-72
2020/12/24 00:40:25;;;;;;;4.45;0.77;;;20.70;48.80;;;;;;5037723;28;20033;-72
2020/12/24 00:42:50;;;;;;;3.47;0.80;;;20.70;48.90;;;;;;5050635;28;20067;-72
2020/12/24 00:45:16;;;;;;;6.78;0.85;;;20.70;48.90;;;;;;5054138;28;20029;-72
2020/12/24 00:47:41;;;;;;;3.67;0.40;;;20.60;49.50;;;;;;5040960;28;20029;-72
2020/12/24 00:50:07;;;;;;;9.35;0.75;;;20.60;49.00;;;;;;5042550;28;20036;-72
2020/12/24 00:52:32;;;;;;;1.70;0.45;;;20.60;49.40;;;;;;5056236;28;20047;-72
2020/12/24 00:54:58;;;;;;;3.83;0.40;;;20.60;49.40;;;;;;5051659;28;20044;-72
2020/12/24 00:57:24;;;;;;;4.20;0.65;;;20.60;49.20;;;;;;5018989;28;20025;-72
2020/12/24 00:59:49;;;;;;;7.97;2.05;;;20.60;49.50;;;;;;5044100;28;20020;-72
2020/12/24 01:02:15;;;;;;;3.40;0.32;;;20.60;49.80;;;;;;5039173;28;20052;-72
2020/12/24 01:04:41;;;;;;;2.72;0.55;;;20.60;49.20;;;;;;5035514;28;20033;-71
2020/12/24 01:07:06;;;;;;;2.42;0.70;;;20.60;49.50;;;;;;5060136;28;20025;-71
2020/12/24 01:09:32;;;;;;;7.13;0.68;;;20.50;49.90;;;;;;5056463;28;20029;-71
2020/12/24 01:11:57;;;;;;;5.32;0.88;;;20.50;49.90;;;;;;5073796;28;20469;-72
2020/12/24 01:17:44;;;;;;;10.23;1.33;;;20.60;50.70;;;;;;5056285;28;20090;-71
2020/12/24 01:20:10;;;;;;;2.53;0.90;;;20.60;50.10;;;;;;5060610;28;20025;-71
2020/12/24 01:22:36;;;;;;;3.95;0.60;;;20.60;50.10;;;;;;5051562;28;20116;-72
2020/12/24 01:25:02;;;;;;;4.13;0.52;;;20.60;50.00;;;;;;5043930;28;20044;-72
2020/12/24 01:27:28;;;;;;;3.15;0.68;;;20.60;50.00;;;;;;5055271;28;20075;-73
2020/12/24 01:29:53;;;;;;;3.15;0.55;;;20.60;50.00;;;;;;5049620;28;20024;-73
2020/12/24 01:32:19;;;;;;;4.07;0.80;;;20.60;50.10;;;;;;5053924;28;20036;-73
2020/12/24 01:34:44;;;;;;;8.55;1.00;;;20.50;49.90;;;;;;5050978;28;20070;-73
2020/12/24 01:37:10;;;;;;;3.70;0.90;;;20.50;50.00;;;;;;5069625;28;20369;-72
2020/12/24 01:39:54;;;;;;;8.30;1.48;;;20.50;50.10;;;;;;5051703;28;20173;-72
2020/12/24 01:42:19;;;;;;;5.80;1.25;;;20.50;50.00;;;;;;5017945;28;20048;-71
2020/12/24 01:44:48;;;;;;;2.63;0.40;;;20.50;50.10;;;;;;5068070;28;20025;-72
2020/12/24 01:47:14;;;;;;;0.55;0.30;;;20.50;50.20;;;;;;5050975;28;20513;-73
2020/12/24 01:49:40;;;;;;;6.35;0.70;;;20.50;50.20;;;;;;5018278;28;20038;-72
2020/12/24 01:52:05;;;;;;;4.57;0.50;;;20.50;50.20;;;;;;5040520;28;20423;-72
2020/12/24 01:54:31;;;;;;;1.90;0.65;;;20.50;50.20;;;;;;5031674;28;20040;-72
2020/12/24 01:56:56;;;;;;;6.95;0.95;;;20.50;50.20;;;;;;5035541;28;20049;-72
2020/12/24 01:59:22;;;;;;;3.38;0.70;;;20.50;50.20;;;;;;5068075;28;20027;-72
2020/12/24 02:01:48;;;;;;;7.40;1.15;;;20.50;50.20;;;;;;5035365;28;20103;-72
2020/12/24 02:04:14;;;;;;;4.30;0.73;;;20.50;50.20;;;;;;5027519;28;20054;-72
2020/12/24 02:06:49;;;;;;;2.58;0.70;;;20.50;50.20;;;;;;5038886;28;20123;-71
2020/12/24 02:09:14;;;;;;;3.53;0.80;;;20.50;50.20;;;;;;5044759;28;20036;-72
2020/12/24 02:11:40;;;;;;;6.85;1.10;;;20.50;50.10;;;;;;5046689;28;20020;-71
2020/12/24 02:14:06;;;;;;;3.58;0.65;;;20.50;50.10;;;;;;5046075;28;20404;-71
2020/12/24 02:16:35;;;;;;;7.18;0.85;;;20.50;50.20;;;;;;5018157;28;20495;-71
2020/12/24 02:19:02;;;;;;;4.85;0.82;;;20.50;50.10;;;;;;5060426;28;20025;-71
2020/12/24 02:21:27;;;;;;;10.93;0.95;;;20.50;50.10;;;;;;5066738;28;20077;-71
2020/12/24 02:23:53;;;;;;;2.35;0.50;;;20.50;50.00;;;;;;5040983;28;20032;-71
2020/12/24 02:26:18;;;;;;;4.13;0.80;;;20.50;50.00;;;;;;5040490;28;20115;-71
2020/12/24 02:28:44;;;;;;;2.83;0.60;;;20.50;50.00;;;;;;5056271;28;20083;-71
2020/12/24 02:31:10;;;;;;;4.75;0.73;;;20.50;50.00;;;;;;5034787;28;20403;-71
2020/12/24 02:33:35;;;;;;;6.90;0.90;;;20.50;50.00;;;;;;5038588;28;20429;-71
2020/12/24 02:36:01;;;;;;;5.88;1.17;;;20.50;50.00;;;;;;5020853;28;20168;-71
2020/12/24 02:38:27;;;;;;;5.57;0.90;;;20.50;49.90;;;;;;5042801;28;20029;-71
2020/12/24 02:40:53;;;;;;;5.45;1.08;;;20.50;50.50;;;;;;5049597;28;20032;-71
2020/12/24 02:43:18;;;;;;;2.10;0.55;;;20.50;49.90;;;;;;5069597;28;20074;-71
2020/12/24 02:45:44;;;;;;;5.07;0.68;;;20.50;49.90;;;;;;5065011;28;20075;-71
2020/12/24 02:48:10;;;;;;;7.07;1.00;;;20.50;49.90;;;;;;5057957;28;20513;-71
2020/12/24 02:50:35;;;;;;;3.90;0.50;;;20.50;49.90;;;;;;5047155;28;20400;-72
2020/12/24 02:53:01;;;;;;;4.43;0.50;;;20.40;49.80;;;;;;5063560;28;20403;-71
2020/12/24 02:55:26;;;;;;;4.10;1.00;;;20.40;49.80;;;;;;5053909;28;20104;-71
2020/12/24 02:57:52;;;;;;;8.32;1.20;;;20.40;49.80;;;;;;5068083;28;20029;-71
2020/12/24 03:00:17;;;;;;;5.18;1.10;;;20.40;49.80;;;;;;5060872;28;20043;-71
2020/12/24 03:02:46;;;;;;;7.43;1.20;;;20.40;49.80;;;;;;5060780;28;20448;-72
2020/12/24 03:05:11;;;;;;;11.82;0.82;;;20.40;50.50;;;;;;5055177;28;20029;-71
2020/12/24 03:07:37;;;;;;;7.22;0.40;;;20.40;49.80;;;;;;5035517;28;20516;-71
2020/12/24 03:10:03;;;;;;;3.95;0.75;;;20.40;49.80;;;;;;5055174;28;20036;-71
2020/12/24 03:12:28;;;;;;;5.50;0.90;;;20.40;49.90;;;;;;5064906;28;20033;-71
2020/12/24 03:14:54;;;;;;;3.90;0.85;;;20.40;49.90;;;;;;5053186;28;20082;-71
2020/12/24 03:17:20;;;;;;;5.47;0.70;;;20.40;49.90;;;;;;5054785;28;20032;-71
2020/12/24 03:19:45;;;;;;;8.45;0.90;;;20.40;49.90;;;;;;5059677;28;20039;-70
2020/12/24 03:22:11;;;;;;;6.93;0.65;;;20.40;50.00;;;;;;5048705;28;20499;-72
2020/12/24 03:24:36;;;;;;;3.15;0.90;;;20.40;50.00;;;;;;5060100;28;20020;-72
2020/12/24 03:27:02;;;;;;;3.13;0.60;;;20.40;50.00;;;;;;5067515;28;20071;-72
2020/12/24 03:29:28;;;;;;;3.15;0.40;;;20.30;49.90;;;;;;5060436;28;20488;-72
2020/12/24 03:31:53;;;;;;;6.07;0.80;;;20.30;50.00;;;;;;5049690;28;20488;-71
2020/12/24 03:34:19;;;;;;;2.92;0.57;;;20.30;50.00;;;;;;5055473;28;20484;-72
2020/12/24 03:36:47;;;;;;;6.90;1.02;;;20.30;50.00;;;;;;5069799;28;20442;-72
2020/12/24 03:43:00;;;;;;;4.20;0.95;;;20.30;50.00;;;;;;5061682;28;20462;-72
2020/12/24 03:45:25;;;;;;;12.90;1.05;;;20.30;50.00;;;;;;5045681;28;20040;-72
2020/12/24 03:47:51;;;;;;;0.88;0.20;;;20.30;50.10;;;;;;5059495;28;20052;-71
2020/12/24 03:50:16;;;;;;;3.70;0.60;;;20.30;50.00;;;;;;5057499;28;20106;-72
2020/12/24 03:52:42;;;;;;;5.75;0.90;;;20.20;50.10;;;;;;5066428;28;20021;-71
2020/12/24 03:55:07;;;;;;;6.10;0.77;;;20.30;50.20;;;;;;5069389;28;20036;-71
2020/12/24 03:57:33;;;;;;;5.20;0.77;;;20.20;50.10;;;;;;5037938;28;20044;-71
2020/12/24 03:59:58;;;;;;;6.65;0.90;;;20.30;50.20;;;;;;5067504;28;20056;-72
2020/12/24 04:02:24;;;;;;;4.22;0.75;;;20.30;50.10;;;;;;5059765;28;20025;-72
2020/12/24 04:04:49;;;;;;;6.20;0.80;;;20.30;50.20;;;;;;5054351;28;20381;-71
2020/12/24 04:07:16;;;;;;;4.35;0.57;;;20.30;50.30;;;;;;5073139;28;20082;-70
2020/12/24 04:10:00;;;;;;;2.33;0.43;;;20.30;50.40;;;;;;5061954;28;20089;-70
2020/12/24 04:12:25;;;;;;;2.15;0.45;;;20.30;50.30;;;;;;5050187;28;20024;-70
2020/12/24 04:14:51;;;;;;;4.88;0.90;;;20.30;50.90;;;;;;5049580;28;20036;-70
2020/12/24 04:17:16;;;;;;;3.03;0.60;;;20.30;50.20;;;;;;5061470;28;20578;-70
2020/12/24 04:19:42;;;;;;;2.45;0.60;;;20.30;50.30;;;;;;5054117;28;20396;-71
2020/12/24 04:22:29;;;;;;;2.30;0.50;;;20.30;50.30;;;;;;5065373;28;20050;-72
2020/12/24 04:24:55;;;;;;;5.20;0.73;;;20.30;50.40;;;;;;5062008;28;20025;-72
2020/12/24 04:27:23;;;;;;;3.92;0.50;;;20.30;50.40;;;;;;5050560;28;20032;-72
2020/12/24 04:29:49;;;;;;;1.55;0.35;;;20.30;50.40;;;;;;5043077;28;20025;-72
2020/12/24 04:32:14;;;;;;;3.45;0.57;;;20.20;50.30;;;;;;5032954;28;20037;-72
2020/12/24 04:34:40;;;;;;;2.55;0.57;;;20.20;50.30;;;;;;5043861;28;20066;-72
2020/12/24 04:37:05;;;;;;;2.65;0.57;;;20.20;50.30;;;;;;5043450;28;20036;-71
2020/12/24 04:39:31;;;;;;;1.42;0.30;;;20.30;50.30;;;;;;5044346;28;20092;-72
2020/12/24 04:45:18;;;;;;;3.78;0.52;;;20.30;49.90;;;;;;5045233;28;20032;-72
2020/12/24 04:47:44;;;;;;;2.75;0.30;;;20.20;50.10;;;;;;5000936;28;20025;-72
2020/12/24 04:50:10;;;;;;;0.50;0.40;;;20.20;50.10;;;;;;5014797;28;20025;-72
2020/12/24 04:52:36;;;;;;;3.75;0.65;;;20.10;50.30;;;;;;5042766;28;20061;-72
2020/12/24 04:55:04;;;;;;;5.63;0.63;;;20.20;50.20;;;;;;5018331;28;20112;-71
2020/12/24 04:57:30;;;;;;;4.45;0.65;;;20.10;50.30;;;;;;5029392;28;20063;-71
2020/12/24 04:59:57;;;;;;;4.68;0.50;;;20.10;50.20;;;;;;5016224;28;20033;-72
2020/12/24 05:02:22;;;;;;;1.33;0.17;;;20.10;50.30;;;;;;5027912;28;20031;-72
2020/12/24 05:04:51;;;;;;;0.30;0.22;;;20.10;50.40;;;;;;5018696;28;20022;-72
2020/12/24 05:07:16;;;;;;;2.22;0.40;;;20.10;50.50;;;;;;4987309;28;20034;-72
2020/12/24 05:09:42;;;;;;;1.75;0.40;;;20.20;50.40;;;;;;5037812;28;20070;-72
2020/12/24 05:12:07;;;;;;;0.15;0.15;;;20.20;50.30;;;;;;5012411;28;20071;-72
2020/12/24 05:14:33;;;;;;;0.03;0.03;;;20.20;50.30;;;;;;5004736;28;20065;-72
2020/12/24 05:17:08;;;;;;;2.53;0.30;;;20.20;50.30;;;;;;5028409;28;20024;-72
2020/12/24 05:20:22;;;;;;;0.77;0.28;;;20.30;50.20;;;;;;5018555;28;20029;-72
2020/12/24 05:22:24;;;;;;;1.02;0.35;;;20.30;50.10;;;;;;5005481;28;20037;-71
2020/12/24 05:24:49;;;;;;;2.33;0.70;;;20.30;50.00;;;;;;5053518;28;20021;-72
2020/12/24 05:27:16;;;;;;;2.92;0.38;;;20.30;50.00;;;;;;5044161;28;20108;-72
2020/12/24 05:29:47;;;;;;;0.98;0.20;;;20.40;50.00;;;;;;5012958;28;20044;-72
2020/12/24 05:32:12;;;;;;;0.13;0.10;;;20.40;49.80;;;;;;5037577;28;20512;-72
2020/12/24 05:34:38;;;;;;;1.27;0.57;;;20.40;49.70;;;;;;5047692;28;20057;-71
2020/12/24 05:37:14;;;;;;;0.30;0.30;;;20.40;49.70;;;;;;5016773;28;20103;-71
2020/12/24 05:39:41;;;;;;;0.55;0.30;;;20.50;49.60;;;;;;5036823;28;20584;-72
2020/12/24 05:42:06;;;;;;;0.40;0.10;;;20.50;49.60;;;;;;5056890;28;20035;-72
2020/12/24 05:44:32;;;;;;;0.65;0.20;;;20.50;49.50;;;;;;5071885;28;20103;-72
2020/12/24 05:46:59;;;;;;;0.85;0.30;;;20.50;49.50;;;;;;5069580;28;20047;-72
2020/12/24 05:49:25;;;;;;;0.55;0.17;;;20.50;49.50;;;;;;5065333;28;20028;-72
2020/12/24 05:52:02;;;;;;;1.42;0.40;;;20.50;49.40;;;;;;5055000;28;20044;-71
2020/12/24 05:54:29;;;;;;;3.40;0.45;;;20.60;49.40;;;;;;5072471;28;20095;-72
2020/12/24 05:56:55;;;;;;;0.77;0.32;;;20.60;49.40;;;;;;5037293;28;20048;-72
2020/12/24 05:59:24;;;;;;;2.42;0.28;;;20.60;49.30;;;;;;5055146;28;20033;-71
2020/12/24 06:02:15;;;;;;;1.02;0.40;;;20.70;49.30;;;;;;5044086;28;20024;-71
2020/12/24 06:04:44;;;;;;;0.32;0.25;;;20.70;49.10;;;;;;5086879;28;20039;-72
2020/12/24 06:07:11;;;;;;;0.90;0.20;;;20.70;49.10;;;;;;5071909;28;20487;-72
2020/12/24 06:09:37;;;;;;;0.60;0.40;;;20.70;49.10;;;;;;5042157;28;20044;-71
2020/12/24 06:12:19;;;;;;;0.70;0.30;;;20.70;49.10;;;;;;5055332;28;20545;-72
2020/12/24 06:14:49;;;;;;;1.33;0.35;;;20.70;49.00;;;;;;5073396;28;20048;-72
2020/12/24 06:17:16;;;;;;;0.43;0.40;;;20.70;49.00;;;;;;5066545;28;20406;-71
2020/12/24 06:19:43;;;;;;;7.00;0.47;;;20.70;49.00;;;;;;5038276;28;20028;-71
2020/12/24 06:22:09;;;;;;;1.05;0.30;;;20.70;49.20;;;;;;5063905;28;20060;-72
2020/12/24 06:24:42;;;;;;;0.20;0.20;;;20.70;49.30;;;;;;5051218;28;20071;-72
2020/12/24 06:27:12;;;;;;;0.75;0.35;;;20.70;49.30;;;;;;5069663;28;20020;-71
2020/12/24 06:29:40;;;;;;;0.98;0.35;;;20.70;49.30;;;;;;5042323;28;20017;-72
2020/12/24 06:32:06;;;;;;;0.43;0.20;;;20.70;49.20;;;;;;5054623;28;20036;-72
2020/12/24 06:34:32;;;;;;;1.23;0.30;;;20.70;49.30;;;;;;5059834;28;20008;-72
2020/12/24 06:37:15;;;;;;;3.28;0.30;;;20.70;49.30;;;;;;5074834;28;20491;-72
2020/12/24 06:39:42;;;;;;;2.03;0.70;;;20.70;49.30;;;;;;5034558;28;20095;-72
2020/12/24 06:42:46;;;;;;;0.47;0.30;;;20.70;49.30;;;;;;5036860;28;20037;-72
2020/12/24 06:45:13;;;;;;;1.67;0.70;;;20.70;49.30;;;;;;4983948;28;20109;-72
2020/12/24 06:47:39;;;;;;;4.95;0.75;;;20.70;49.30;;;;;;4976185;28;20035;-72
2020/12/24 06:50:43;;;;;;;6.28;0.52;;;20.70;49.20;;;;;;4974548;28;20066;-72
2020/12/24 06:53:25;;;;;;;0.28;0.20;;;20.70;49.20;;;;;;5004219;28;20080;-71
2020/12/24 06:56:09;;;;;;;0.38;0.30;;;20.70;49.20;;;;;;4960297;28;20092;-71
2020/12/24 06:58:38;;;;;;;1.13;0.50;;;20.80;49.20;;;;;;4990243;28;20038;-71
2020/12/24 07:01:04;;;;;;;8.35;1.08;;;20.80;49.20;;;;;;4963598;28;20109;-72
2020/12/24 07:03:30;;;;;;;2.58;0.60;;;20.70;49.10;;;;;;4973487;28;20033;-71
2020/12/24 07:05:56;;;;;;;0.30;0.30;;;20.80;49.20;;;;;;4980372;28;20043;-72
2020/12/24 07:08:33;;;;;;;1.10;0.30;;;20.70;49.30;;;;;;4973287;28;20035;-70
2020/12/24 07:11:37;;;;;;;0.52;0.10;;;20.70;49.30;;;;;;4990382;28;20041;-71
2020/12/24 07:14:03;;;;;;;2.70;0.65;;;20.80;49.30;;;;;;4996151;28;20042;-72
2020/12/24 07:16:48;;;;;;;0.52;0.20;;;20.80;49.30;;;;;;4953998;28;20218;-72
2020/12/24 07:19:16;;;;;;;1.77;0.50;;;20.80;49.30;;;;;;5037399;28;20102;-70
2020/12/24 07:21:45;;;;;;;0.20;0.20;;;20.80;49.40;;;;;;5068696;28;20064;-70
2020/12/24 07:24:11;;;;;;;1.20;0.38;;;20.80;49.30;;;;;;5055793;28;20028;-70
2020/12/24 07:26:36;;;;;;;0.57;0.38;;;20.80;49.40;;;;;;5054530;28;20032;-71
2020/12/24 07:29:02;;;;;;;1.95;0.30;;;20.80;49.40;;;;;;5043370;28;20033;-70
2020/12/24 07:31:28;;;;;;;0.57;0.20;;;20.80;49.30;;;;;;5036769;28;20120;-70
2020/12/24 07:33:53;;;;;;;3.75;0.47;;;20.80;49.30;;;;;;5043637;28;20075;-71
2020/12/24 07:36:23;;;;;;;0.35;0.30;;;20.90;49.30;;;;;;5057512;28;20036;-70
2020/12/24 07:38:49;;;;;;;1.08;0.40;;;20.90;49.30;;;;;;5015091;28;20419;-70
2020/12/24 07:41:15;;;;;;;10.55;0.63;;;20.90;49.20;;;;;;5055052;28;20039;-70
2020/12/24 07:43:40;;;;;;;2.67;0.55;;;20.90;49.10;;;;;;5046419;28;20025;-70
2020/12/24 07:46:07;;;;;;;1.05;0.57;;;20.90;49.10;;;;;;5068069;28;20035;-71
2020/12/24 07:48:33;;;;;;;0.30;0.30;;;20.90;49.10;;;;;;5031649;28;20120;-71
2020/12/24 07:51:08;;;;;;;0.95;0.40;;;20.90;49.10;;;;;;5026181;28;20470;-71
2020/12/24 07:53:34;;;;;;;0.30;0.30;;;20.90;49.00;;;;;;5042037;28;20041;-71
2020/12/24 07:56:06;;;;;;;0.75;0.20;;;20.90;49.00;;;;;;5054422;28;20033;-71
2020/12/24 07:58:32;;;;;;;0.55;0.40;;;20.90;49.00;;;;;;5051917;28;20036;-71
2020/12/24 08:04:19;;;;;;;1.23;0.30;;;20.90;49.50;;;;;;5049402;28;20121;-71
2020/12/24 08:06:44;;;;;;;1.85;0.40;;;20.90;48.90;;;;;;5055482;28;20104;-71
2020/12/24 08:09:14;;;;;;;0.63;0.20;;;20.90;48.90;;;;;;5038860;28;20067;-71
2020/12/24 08:11:52;;;;;;;0.50;0.20;;;20.90;48.90;;;;;;5025371;28;20064;-71
2020/12/24 08:14:23;;;;;;;0.90;0.57;;;20.90;48.90;;;;;;5069621;28;20035;-71
2020/12/24 08:16:49;;;;;;;2.08;0.70;;;20.90;48.80;;;;;;5035017;28;20504;-72
2020/12/24 08:19:20;;;;;;;1.75;0.63;;;20.90;48.70;;;;;;5025632;28;20104;-71
2020/12/24 08:22:09;;;;;;;0.70;0.52;;;20.90;48.60;;;;;;5033598;28;20036;-71
2020/12/24 08:24:35;;;;;;;1.70;0.50;;;20.90;48.50;;;;;;5028709;28;20033;-70
2020/12/24 08:27:00;;;;;;;1.10;0.52;;;21.00;48.50;;;;;;5035568;28;20489;-71
2020/12/24 08:29:26;;;;;;;2.22;0.88;;;21.00;48.60;;;;;;5039125;28;20105;-71
2020/12/24 08:31:51;;;;;;;1.02;0.60;;;20.90;48.60;;;;;;5054613;28;20060;-71
2020/12/24 08:34:17;;;;;;;1.95;0.70;;;21.00;48.60;;;;;;5016596;28;20051;-71
2020/12/24 08:36:44;;;;;;;1.55;0.70;;;20.90;48.50;;;;;;5042293;28;20033;-70
2020/12/24 08:39:11;;;;;;;1.23;0.68;;;21.00;48.50;;;;;;5034849;28;20068;-71
2020/12/24 08:41:42;;;;;;;1.15;0.88;;;20.90;48.30;;;;;;5030828;28;20580;-71
2020/12/24 08:44:08;;;;;;;1.25;0.60;;;20.90;48.30;;;;;;5023750;28;20105;-71
2020/12/24 08:46:33;;;;;;;0.80;0.40;;;20.90;48.20;;;;;;5043060;28;20104;-71
2020/12/24 08:49:25;;;;;;;0.40;0.40;;;20.90;48.20;;;;;;5029331;28;20021;-71
2020/12/24 08:52:06;;;;;;;0.90;0.40;;;20.90;48.20;;;;;;5056156;28;20033;-71
2020/12/24 08:54:31;;;;;;;0.30;0.30;;;20.90;48.10;;;;;;5042493;28;20111;-70
2020/12/24 08:56:57;;;;;;;0.28;0.20;;;20.90;48.10;;;;;;5054160;28;20111;-71
2020/12/24 08:59:22;;;;;;;0.52;0.47;;;20.90;47.90;;;;;;5066553;28;20028;-70
2020/12/24 09:01:48;;;;;;;1.60;0.40;;;20.80;47.90;;;;;;5054782;28;20029;-70
2020/12/24 09:04:17;;;;;;;1.10;0.57;;;20.90;47.90;;;;;;5054768;28;20033;-70
2020/12/24 09:06:44;;;;;;;0.57;0.40;;;20.90;47.80;;;;;;5050658;28;20033;-71
2020/12/24 09:09:21;;;;;;;0.52;0.30;;;20.90;47.70;;;;;;5018707;28;20496;-70
2020/12/24 09:11:47;;;;;;;1.17;0.47;;;20.80;47.60;;;;;;5037353;28;20112;-70
2020/12/24 09:14:16;;;;;;;0.30;0.30;;;20.80;47.50;;;;;;5043905;28;20036;-72
2020/12/24 09:16:56;;;;;;;0.20;0.20;;;20.80;47.40;;;;;;5041701;28;20489;-74
2020/12/24 09:19:22;;;;;;;0.22;0.20;;;20.90;47.40;;;;;;5019092;28;20053;-72
2020/12/24 09:21:52;;;;;;;0.20;0.20;;;20.80;47.20;;;;;;5036913;28;20514;-74
2020/12/24 09:24:18;;;;;;;0.25;0.25;;;20.80;47.10;;;;;;5032792;28;20527;-73
2020/12/24 09:26:54;;;;;;;0.65;0.28;;;20.80;47.10;;;;;;5036800;28;20048;-73
2020/12/24 09:29:21;;;;;;;0.30;0.30;;;20.80;47.10;;;;;;5040806;28;20564;-74
2020/12/24 09:31:59;;;;;;;0.20;0.20;;;20.80;47.10;;;;;;5037938;28;20024;-74
2020/12/24 09:34:27;;;;;;;0.30;0.10;;;20.80;47.00;;;;;;5051935;28;20593;-73
2020/12/24 09:36:53;;;;;;;0.10;0.10;;;20.80;47.00;;;;;;5040195;28;20039;-73
2020/12/24 09:39:18;;;;;;;0.10;0.10;;;20.70;46.90;;;;;;5053304;28;20118;-73
2020/12/24 09:41:44;;;;;;;0.10;0.10;;;20.80;46.90;;;;;;5019362;28;20060;-73
2020/12/24 09:44:11;;;;;;;0.20;0.20;;;20.80;46.90;;;;;;5032711;28;20174;-72
2020/12/24 09:46:36;;;;;;;0.52;0.28;;;20.80;46.80;;;;;;5053441;28;20053;-72
2020/12/24 09:49:02;;;;;;;0.95;0.20;;;20.80;46.80;;;;;;5021665;28;20519;-73
2020/12/24 09:51:31;;;;;;;0.30;0.30;;;20.80;47.30;;;;;;5054591;28;20028;-73
2020/12/24 09:53:57;;;;;;;0.30;0.20;;;20.80;46.70;;;;;;5019882;28;20139;-73
2020/12/24 09:56:22;;;;;;;0.40;0.40;;;20.80;46.60;;;;;;5022964;28;20774;-73
2020/12/24 09:58:48;;;;;;;2.40;0.20;;;20.80;46.60;;;;;;5051426;28;20025;-73
2020/12/24 10:01:16;;;;;;;0.13;0.13;;;20.80;46.50;;;;;;5054235;28;20024;-73
2020/12/24 10:03:54;;;;;;;0.43;0.20;;;20.80;46.50;;;;;;5017681;28;20032;-73
2020/12/24 10:06:20;;;;;;;0.10;0.10;;;20.80;46.40;;;;;;5036351;28;20026;-72
2020/12/24 10:08:45;;;;;;;0.10;0.10;;;20.80;46.50;;;;;;5037396;28;20055;-73
2020/12/24 10:11:20;;;;;;;0.43;0.10;;;20.80;46.40;;;;;;5054795;28;20047;-72
2020/12/24 10:13:46;;;;;;;0.40;0.10;;;20.90;46.40;;;;;;5055720;28;20021;-72
2020/12/24 10:16:11;;;;;;;0.20;0.20;;;20.80;46.40;;;;;;5051331;28;20086;-73
2020/12/24 10:18:43;;;;;;;0.20;0.20;;;20.80;46.30;;;;;;5052559;28;20028;-73
2020/12/24 10:21:09;;;;;;;0.20;0.10;;;20.80;46.40;;;;;;5042375;28;20032;-74
2020/12/24 10:23:35;;;;;;;0.65;0.35;;;20.80;46.40;;;;;;5033998;28;20040;-73
2020/12/24 10:26:00;;;;;;;0.10;0.10;;;20.80;46.40;;;;;;5017979;28;20496;-73
2020/12/24 10:28:26;;;;;;;0.30;0.30;;;20.80;46.40;;;;;;5052619;28;20043;-73
2020/12/24 10:30:51;;;;;;;0.57;0.28;;;20.80;46.40;;;;;;5072423;28;20024;-72
2020/12/24 10:33:17;;;;;;;1.05;0.50;;;20.80;46.20;;;;;;5055321;28;20064;-74
2020/12/24 10:35:43;;;;;;;0.30;0.30;;;20.80;46.20;;;;;;5051494;28;20098;-74
2020/12/24 10:38:08;;;;;;;1.48;0.30;;;20.80;46.20;;;;;;5048174;28;20141;-75
2020/12/24 10:40:35;;;;;;;0.52;0.28;;;20.80;46.20;;;;;;5051563;28;20410;-71
2020/12/24 10:43:01;;;;;;;0.60;0.43;;;20.80;46.20;;;;;;5005320;28;20095;-71
2020/12/24 10:45:27;;;;;;;0.30;0.20;;;20.80;46.20;;;;;;5024684;28;20460;-72
2020/12/24 10:47:52;;;;;;;0.52;0.43;;;20.80;46.20;;;;;;5040500;28;20075;-72
2020/12/24 10:50:18;;;;;;;0.60;0.30;;;20.80;46.10;;;;;;5055173;28;20025;-72
2020/12/24 10:52:45;;;;;;;0.20;0.20;;;20.80;46.00;;;;;;5039504;28;20090;-72
2020/12/24 10:55:10;;;;;;;0.20;0.10;;;20.80;46.10;;;;;;5051476;28;20028;-72
2020/12/24 10:57:36;;;;;;;0.10;0.10;;;20.80;46.00;;;;;;5057595;28;20039;-72
2020/12/24 11:00:04;;;;;;;0.65;0.22;;;20.80;46.00;;;;;;5076225;28;20082;-72
2020/12/24 11:02:29;;;;;;;0.85;0.30;;;20.80;45.90;;;;;;5053410;28;20021;-72
2020/12/24 11:04:55;;;;;;;0.30;0.20;;;20.80;45.90;;;;;;5071966;28;20047;-72
2020/12/24 11:07:20;;;;;;;0.60;0.40;;;20.80;46.00;;;;;;5075869;28;20028;-72
2020/12/24 11:09:46;;;;;;;0.50;0.25;;;20.80;46.00;;;;;;5034445;28;20021;-72
2020/12/24 11:12:11;;;;;;;0.10;0.10;;;20.80;46.00;;;;;;5055338;28;20032;-74
2020/12/24 11:14:37;;;;;;;0.30;0.30;;;20.80;45.90;;;;;;5027384;28;20056;-75
2020/12/24 11:17:04;;;;;;;0.50;0.30;;;20.80;45.90;;;;;;5054308;28;20488;-75
2020/12/24 11:19:29;;;;;;;0.30;0.20;;;20.80;45.80;;;;;;5053722;28;20047;-75
2020/12/24 11:21:55;;;;;;;0.10;0.10;;;20.80;45.80;;;;;;5054359;28;20104;-75
2020/12/24 11:24:20;;;;;;;0.10;0.10;;;20.80;45.70;;;;;;5056102;28;20484;-75
2020/12/24 11:26:46;;;;;;;0.80;0.28;;;20.80;45.70;;;;;;5053525;28;20519;-75
2020/12/24 11:29:12;;;;;;;0.28;0.20;;;20.80;45.70;;;;;;5037027;28;20057;-74
2020/12/24 11:31:37;;;;;;;1.55;0.17;;;20.80;45.70;;;;;;5044486;28;20111;-74
2020/12/24 11:34:04;;;;;;;0.63;0.22;;;20.80;45.60;;;;;;5037037;28;21802;-72
2020/12/24 11:36:29;;;;;;;0.40;0.20;;;20.80;45.60;;;;;;5037600;28;20021;-72
2020/12/24 11:38:55;;;;;;;4.40;0.30;;;20.80;46.20;;;;;;5054310;28;20033;-75
2020/12/24 11:41:22;;;;;;;0.40;0.15;;;20.80;45.50;;;;;;5020475;28;20041;-74
2020/12/24 11:43:47;;;;;;;1.02;0.47;;;20.80;45.50;;;;;;5027688;28;20030;-74
2020/12/24 11:46:13;;;;;;;0.75;0.28;;;20.80;45.60;;;;;;5052248;28;20036;-74
2020/12/24 11:48:39;;;;;;;0.20;0.20;;;20.80;45.50;;;;;;5034898;28;20021;-74
2020/12/24 11:51:08;;;;;;;0.45;0.15;;;20.80;45.50;;;;;;5029593;28;20032;-74
2020/12/24 11:53:48;;;;;;;0.20;0.10;;;20.70;45.50;;;;;;5045337;28;20033;-74
2020/12/24 11:56:15;;;;;;;0.00;0.00;;;20.70;45.50;;;;;;5053686;28;20044;-74
2020/12/24 11:59:14;;;;;;;1.38;0.20;;;20.70;45.50;;;;;;5042516;28;20037;-74
2020/12/24 12:01:40;;;;;;;0.30;0.30;;;20.70;45.60;;;;;;5054073;28;20029;-74
2020/12/24 12:04:05;;;;;;;0.20;0.20;;;20.70;45.60;;;;;;5054730;28;20515;-74
2020/12/24 12:06:31;;;;;;;0.10;0.10;;;20.70;45.60;;;;;;5054930;28;20532;-74
2020/12/24 12:08:57;;;;;;;0.30;0.20;;;20.70;45.60;;;;;;5051521;28;20025;-75
2020/12/24 12:11:22;;;;;;;0.10;0.05;;;20.60;45.60;;;;;;5051080;28;20060;-72
2020/12/24 12:13:49;;;;;;;2.47;0.28;;;20.60;45.60;;;;;;5044026;28;20423;-72
2020/12/24 12:16:20;;;;;;;0.38;0.30;;;20.60;45.70;;;;;;5037020;28;20039;-72
2020/12/24 12:18:46;;;;;;;0.10;0.10;;;20.60;45.70;;;;;;5040057;28;20119;-72
2020/12/24 12:21:11;;;;;;;0.60;0.10;;;20.60;45.70;;;;;;5047762;28;20076;-71
2020/12/24 12:23:37;;;;;;;0.38;0.13;;;20.60;45.60;;;;;;5042042;28;20082;-72
2020/12/24 12:26:02;;;;;;;0.57;0.22;;;20.60;45.60;;;;;;5054906;28;20518;-72
2020/12/24 12:28:28;;;;;;;0.20;0.20;;;20.60;45.60;;;;;;5011967;28;20412;-72
2020/12/24 12:30:54;;;;;;;0.30;0.28;;;20.60;45.60;;;;;;5046004;28;20519;-72
2020/12/24 12:33:19;;;;;;;0.20;0.20;;;20.60;45.50;;;;;;5018729;28;20068;-72
2020/12/24 12:35:45;;;;;;;0.28;0.28;;;20.60;45.40;;;;;;5051494;28;20032;-72
2020/12/24 12:38:10;;;;;;;0.20;0.20;;;20.70;45.40;;;;;;5038768;28;20033;-72
2020/12/24 12:40:36;;;;;;;0.50;0.30;;;20.70;45.50;;;;;;5030520;28;20082;-72
2020/12/24 12:43:02;;;;;;;0.10;0.10;;;20.70;45.50;;;;;;5028713;28;20059;-72
2020/12/24 12:45:27;;;;;;;0.20;0.20;;;20.70;45.50;;;;;;5049629;28;20497;-72
2020/12/24 12:47:53;;;;;;;0.22;0.22;;;20.70;45.40;;;;;;5052784;28;20037;-72
2020/12/24 12:50:18;;;;;;;0.10;0.10;;;20.70;45.40;;;;;;5045846;28;20029;-72
2020/12/24 12:52:44;;;;;;;0.35;0.20;;;20.70;45.40;;;;;;5052983;28;20567;-74
2020/12/24 12:55:09;;;;;;;0.30;0.20;;;20.70;45.30;;;;;;5041508;28;20037;-74
2020/12/24 12:57:35;;;;;;;0.10;0.10;;;20.80;45.90;;;;;;5050975;28;20047;-74
2020/12/24 13:00:44;;;;;;;0.10;0.10;;;20.80;45.20;;;;;;5043040;28;20053;-74
2020/12/24 13:03:10;;;;;;;0.03;0.03;;;20.80;45.20;;;;;;5025237;28;20029;-74